Gibbs, MO

2:46 AM CST on December 09, 2016 (GMT -0600)
Metro Laplata | | Change Station

Elev 951 ft 40.02 °N, 92.49 °W | Updated 6 seconds ago

Clear
Clear
14.7 °F
Feels Like 15 °F
N
1.3
Wind Variable Wind from WNW
Gusts 2.9 mph

Today
High -- | Low -- °F
--% Chance of Precip.
Yesterday
High -- | Low -- °F
Precip. -- in
Pressure 30.65 in
Visibility 10.0 miles
Clouds Clear
Windchill 15 °F
Dew Point 3 °F
Humidity 59%
Rainfall 0.00 in
Snow Depth Not available.
7:20 AM 4:44 PM
Waxing Gibbous, 72% visible
METAR KIRK 090755Z AUTO 29005KT 10SM CLR M10/M13 A3059 RMK AO2 SLP379 T11001133
Pressure 30.65 in
Visibility 10.0 miles
Clouds Clear
Windchill 15 °F
Dew Point 3 °F
Humidity 59%
Rainfall 0.00 in
Snow Depth Not available.
7:20 AM 4:44 PM
Waxing Gibbous, 72% visible
METAR KIRK 090755Z AUTO 29005KT 10SM CLR M10/M13 A3059 RMK AO2 SLP379 T11001133

10-Day Weather Forecast

Almanac

Astronomy

Dec. 09, 2016 Rise Set
Actual Time
Civil Twilight
Nautical Twilight
Astronomical Twilight
Moon
Length of Visible Light
Length of Day
Tomorrow will be .
, % of the Moon is Illuminated

Today's Extremes

State Highs State Lows

Community

WunderPhotos

Upload Photos

1,956,371 photos uploaded!

WunderBlog® & News

Nearby

Air Quality

  Air Quality AQ Index Pollutant
Not available.

Snow Depth

Station Depth Elevation

Earthquake Activity

City Distance Mag. Time & Date
Minimum magnitude displayed is 2.5.

Coastal Water Temperatures

Place Temperature

Stations

Nearby Weather Stations

Station Location Temp. Windchill Dew Point Humidity Wind Precip. Elev Updated Type
                   

Watches & Warnings

There are currently no watches in effect.